Westview Chinook — VG3278 — position and weather

sailwx.info

Track history (hours):
 
Tides and Currents Weather Stations Pressure Air Temp Water Temp Dewpoint Dewpoint Depression Visibility Wind Speed Wind Dir Waves Ship Positions

Westview Chinook

Last reported at 2017-Feb-20 10:33 UTC. Time now 2017-Feb-20 11:10 UTC.
Position N 49°10' W 123°38'.

Length 15 m.

Type: Tug. MMSI: 316005622.

Date/timePositionNaut miles runAvg speedWind from/ knotsBaromVisibWave heightAir tempDewpointWater temp
2017-Feb-20 10:33N 49°10' W 123°38'6 5.5
2017-Feb-20 09:31N 49°12' W 123°46'2 0.5
2017-Feb-20 06:05N 49°14' W 123°47'4 7.4
2017-Feb-20 05:31N 49°14' W 123°41'7 7.4
2017-Feb-20 04:33N 49°15' W 123°30'7 7.3
2017-Feb-20 03:33N 49°16' W 123°19'3 2.6
2017-Feb-20 02:33N 49°15' W 123°15'0 0.0
2017-Feb-20 01:33N 49°15' W 123°15'0 0.0
2017-Feb-20 00:33N 49°15' W 123°15'1 1.1
2017-Feb-19 23:33N 49°16' W 123°17'9 9.5
2017-Feb-19 22:33N 49°15' W 123°31'15 7.5
2017-Feb-19 20:30N 49°09' W 123°53'5 5.5
2017-Feb-19 19:33N 49°13' W 123°48'9 8.5
2017-Feb-19 18:32N 49°11' W 123°35'8 8.4
2017-Feb-19 17:33N 49°08' W 123°24'8 7.9
2017-Feb-19 16:33N 49°07' W 123°12'7 6.6
2017-Feb-19 15:33N 49°09' W 123°02'8 8.1
2017-Feb-19 14:33N 49°13' W 122°51'4 3.7
2017-Feb-19 13:33N 49°14' W 122°46'0 0.0
2017-Feb-19 12:33N 49°14' W 122°46'0 0.2
2017-Feb-19 11:33N 49°14' W 122°46'7 6.6
2017-Feb-19 10:33N 49°12' W 122°56'8 7.7
2017-Feb-19 09:33N 49°12' W 123°08'6 5.8
2017-Feb-19 08:33N 49°15' W 123°15'4 4.3
2017-Feb-19 07:33N 49°19' W 123°13'5 4.9
2017-Feb-19 06:33N 49°18' W 123°06'8 7.9
2017-Feb-19 05:33N 49°16' W 123°17'4 3.8
2017-Feb-19 04:33N 49°13' W 123°13'5 4.7
2017-Feb-19 03:33N 49°12' W 123°06'5 5.2
2017-Feb-19 02:33N 49°11' W 122°58'8 8.3
2017-Feb-19 01:33N 49°14' W 122°46'0 0.0
2017-Feb-19 00:33N 49°14' W 122°46'0 0.0
2017-Feb-18 23:33N 49°14' W 122°46'0 0.0
2017-Feb-18 22:33N 49°14' W 122°46'0 0.0
2017-Feb-18 21:33N 49°14' W 122°46'0 0.0
2017-Feb-18 20:33N 49°14' W 122°46'0 0.0
2017-Feb-18 19:33N 49°14' W 122°46'0 0.0
2017-Feb-18 18:33N 49°14' W 122°46'0 0.0
2017-Feb-18 17:33N 49°14' W 122°46'0 0.0
2017-Feb-18 16:33N 49°14' W 122°46'3 3.1
2017-Feb-18 15:33N 49°13' W 122°51'8 8.0
2017-Feb-18 14:33N 49°09' W 123°01'1 1.2
2017-Feb-18 13:33N 49°09' W 123°03'5 4.7
2017-Feb-18 12:33N 49°06' W 123°09'5 4.6
2017-Feb-18 11:33N 49°07' W 123°16'5 5.1
2017-Feb-18 10:33N 49°07' W 123°24'7 7.0
2017-Feb-18 09:30N 49°09' W 123°35'7 6.6
2017-Feb-18 08:28N 49°11' W 123°45'5 5.2
2017-Feb-18 07:26N 49°10' W 123°53'3 3.0
2017-Feb-18 06:20N 49°12' W 123°48'8 9.7
2017-Feb-18 05:31N 49°10' W 123°37'9 9.5
2017-Feb-18 04:33N 49°07' W 123°24'9 9.4
2017-Feb-18 03:33N 49°07' W 123°09'1010.3
2017-Feb-18 02:33N 49°11' W 122°55'6 3.1
2017-Feb-18 00:29N 49°14' W 122°46'6 6.0
2017-Feb-17 23:33N 49°12' W 122°54'1 0.5
2017-Feb-17 22:33N 49°12' W 122°55'4 3.9
2017-Feb-17 21:33N 49°12' W 123°01'5 4.7
2017-Feb-17 20:34N 49°12' W 123°08'1 1.1
2017-Feb-17 19:33N 49°12' W 123°07'4 4.4
2017-Feb-17 18:34N 49°13' W 123°13'1 1.2
2017-Feb-17 17:33N 49°13' W 123°11'4 4.1
2017-Feb-17 16:33N 49°12' W 123°05'5 4.9
2017-Feb-17 15:33N 49°11' W 122°58'8 7.5
2017-Feb-17 14:32N 49°14' W 122°46'0 0.0
2017-Feb-16 18:32N 49°14' W 122°46'0 0.0
2017-Feb-16 17:33N 49°14' W 122°46'4 3.8
2017-Feb-16 16:33N 49°13' W 122°51'4 4.2
2017-Feb-16 15:33N 49°11' W 122°57'2 1.7
2017-Feb-16 14:33N 49°11' W 122°55'2 1.8
2017-Feb-16 13:33N 49°11' W 122°58'7 6.7
2017-Feb-16 12:33N 49°12' W 123°08'7 7.5
2017-Feb-16 11:33N 49°16' W 123°18'9 9.4
2017-Feb-16 10:33N 49°14' W 123°32'14 9.5
2017-Feb-16 09:07N 49°12' W 123°53'3 4.5
2017-Feb-16 08:31N 49°09' W 123°53'4 4.6
2017-Feb-16 07:33N 49°12' W 123°48'9 8.6
2017-Feb-16 06:33N 49°09' W 123°36'8 8.0
2017-Feb-16 05:33N 49°05' W 123°25'8 8.1
2017-Feb-16 04:33N 49°08' W 123°13'7 7.3
2017-Feb-16 03:33N 49°09' W 123°02'6 6.4
2017-Feb-16 02:33N 49°12' W 122°54'0 0.2
2017-Feb-16 01:23N 49°13' W 122°54'5 6.1
2017-Feb-16 00:33N 49°12' W 123°01'5 4.5
2017-Feb-15 23:33N 49°12' W 123°08'5 5.2
2017-Feb-15 22:33N 49°15' W 123°15'3 3.0
2017-Feb-15 21:33N 49°18' W 123°16'7 6.5
2017-Feb-15 20:33N 49°19' W 123°06'2 1.5
2017-Feb-15 19:33N 49°19' W 123°08'6 6.2
2017-Feb-15 18:33N 49°14' W 123°15'7 7.5
2017-Feb-15 17:33N 49°12' W 123°04'6 5.9
2017-Feb-15 16:33N 49°11' W 122°55'1 0.8
2017-Feb-15 15:33N 49°12' W 122°56'5 5.1
2017-Feb-15 14:33N 49°09' W 123°02'5 4.8
2017-Feb-15 13:33N 49°07' W 123°08'5 5.4
2017-Feb-15 12:33N 49°07' W 123°17'5 4.7
2017-Feb-15 11:33N 49°07' W 123°24'6 5.7
2017-Feb-15 10:33N 49°09' W 123°32'5 5.3
2017-Feb-15 09:32N 49°11' W 123°40'5 4.7
2017-Feb-15 08:33N 49°13' W 123°46'5 4.6
2017-Feb-15 07:33N 49°11' W 123°53'2 2.2
2017-Feb-15 06:33N 49°13' W 123°51'1010.0
2017-Feb-15 05:33N 49°14' W 123°35'1010.1
2017-Feb-15 04:33N 49°15' W 123°20'9 8.8
2017-Feb-15 03:33N 49°12' W 123°08'3 3.2
2017-Feb-15 02:33N 49°12' W 123°03'0 0.0
2017-Feb-15 01:33N 49°12' W 123°03'0 0.0
2017-Feb-15 00:33N 49°12' W 123°03'0 0.0
2017-Feb-14 23:33N 49°12' W 123°03'0 0.0
2017-Feb-14 22:33N 49°12' W 123°03'0 0.0
2017-Feb-14 21:33N 49°12' W 123°03'2 1.7
2017-Feb-14 20:33N 49°12' W 123°05'4 3.7
2017-Feb-14 19:33N 49°13' W 123°11'5 4.5
2017-Feb-14 18:33N 49°15' W 123°17'4 3.6
2017-Feb-14 17:33N 49°18' W 123°13'4 3.8
2017-Feb-14 16:33N 49°18' W 123°07'1 0.5
2017-Feb-14 15:33N 49°19' W 123°06'0 0.0
2017-Feb-14 14:33N 49°19' W 123°06'3 2.9
2017-Feb-14 13:33N 49°18' W 123°02'0 0.0
2017-Feb-14 12:33N 49°18' W 123°02'0 0.0
2017-Feb-14 11:33N 49°18' W 123°02'0 0.0
2017-Feb-14 10:33N 49°18' W 123°02'0 0.0
2017-Feb-14 09:33N 49°18' W 123°02'0 0.0
2017-Feb-14 08:33N 49°18' W 123°02'0 0.0
2017-Feb-14 07:33N 49°18' W 123°02'0 0.0
2017-Feb-14 06:33N 49°18' W 123°02'0 0.0
2017-Feb-14 05:33N 49°18' W 123°02'0 0.0
2017-Feb-14 04:33N 49°18' W 123°02'0 0.0
2017-Feb-14 03:33N 49°18' W 123°02'0 0.0
2017-Feb-14 02:33N 49°18' W 123°02'0 0.0
2017-Feb-14 01:33N 49°18' W 123°02'0 0.0
2017-Feb-14 00:33N 49°18' W 123°02'0 0.0
2017-Feb-13 23:33N 49°18' W 123°02'0 0.0
2017-Feb-13 22:33N 49°18' W 123°02'0 0.0
2017-Feb-13 21:33N 49°18' W 123°02'0 0.0
2017-Feb-13 20:33N 49°18' W 123°02'0 0.0
2017-Feb-13 19:33N 49°18' W 123°02'0 0.0
2017-Feb-13 18:33N 49°18' W 123°02'0 0.0
2017-Feb-13 17:33N 49°18' W 123°02'0 0.0
2017-Feb-13 16:33N 49°18' W 123°02'0 0.0
2017-Feb-13 15:33N 49°18' W 123°02'0 0.0
2017-Feb-13 14:33N 49°18' W 123°02'0 0.0
2017-Feb-13 13:33N 49°18' W 123°02'0 0.0
2017-Feb-13 12:33N 49°18' W 123°02'0 0.0
2017-Feb-13 11:33N 49°18' W 123°02'0 0.0
2017-Feb-13 10:33N 49°18' W 123°02'0 0.0
2017-Feb-13 09:33N 49°18' W 123°02'0 0.0
2017-Feb-13 08:33N 49°18' W 123°02'0 0.0
2017-Feb-13 07:33N 49°18' W 123°02'0 0.0
2017-Feb-13 06:33N 49°18' W 123°02'0 0.0
2017-Feb-13 05:34N 49°18' W 123°02'0 0.0
2017-Feb-13 04:33N 49°18' W 123°02'0 0.0
2017-Feb-13 03:33N 49°18' W 123°02'0 0.0
2017-Feb-13 02:33N 49°18' W 123°02'3 2.9
2017-Feb-13 01:33N 49°18' W 123°06'10 9.5
2017-Feb-13 00:33N 49°17' W 123°21'9 9.4
2017-Feb-12 23:34N 49°15' W 123°35'9 9.1
2017-Feb-12 22:33N 49°13' W 123°48'5 4.9
2017-Feb-12 21:33N 49°09' W 123°53'6 5.7
2017-Feb-12 20:33N 49°14' W 123°48'9 8.5
2017-Feb-12 19:33N 49°11' W 123°35'8 7.8
2017-Feb-12 18:33N 49°08' W 123°24'8 7.6
2017-Feb-12 17:33N 49°08' W 123°13'7 7.1
2017-Feb-12 16:33N 49°09' W 123°02'5 5.1
2017-Feb-12 15:33N 49°11' W 122°55'6 6.3
2017-Feb-12 14:33N 49°14' W 122°46'0 0.0
2017-Feb-11 16:05N 49°14' W 122°46'2 3.2
2017-Feb-11 15:32N 49°13' W 122°48'5 4.9
2017-Feb-11 14:34N 49°11' W 122°55'5 5.1
2017-Feb-11 13:34N 49°09' W 123°02'3 2.9
2017-Feb-11 12:33N 49°07' W 123°05'7 6.6
2017-Feb-11 11:34N 49°07' W 123°15'6 5.6
2017-Feb-11 10:34N 49°07' W 123°24'5 5.2
2017-Feb-11 09:33N 49°09' W 123°32'6 5.8
2017-Feb-11 08:34N 49°10' W 123°40'5 5.5
2017-Feb-11 07:34N 49°12' W 123°48'4 4.4
2017-Feb-11 06:33N 49°09' W 123°53'6 6.0
2017-Feb-11 05:34N 49°13' W 123°47'10 9.9
2017-Feb-11 04:33N 49°16' W 123°32'10 9.9
2017-Feb-11 03:33N 49°19' W 123°17'10 9.6
2017-Feb-11 02:33N 49°18' W 123°03'1 0.1
2017-Feb-10 21:33N 49°18' W 123°02'0 0.0
2017-Feb-10 20:34N 49°18' W 123°02'0 0.0
2017-Feb-10 19:34N 49°18' W 123°02'0 0.0
2017-Feb-10 18:34N 49°18' W 123°02'0 0.0
2017-Feb-10 17:34N 49°18' W 123°02'0 0.0
2017-Feb-10 16:33N 49°18' W 123°02'0 0.0
2017-Feb-10 15:33N 49°18' W 123°02'0 0.0
2017-Feb-10 14:33N 49°18' W 123°02'0 0.0
2017-Feb-10 13:33N 49°18' W 123°02'0 0.0
2017-Feb-10 12:33N 49°18' W 123°02'0 0.0
2017-Feb-10 11:33N 49°18' W 123°02'0 0.0
2017-Feb-10 10:33N 49°18' W 123°02'  
Track history (hours):
 
Tides and Currents Weather Stations Pressure Air Temp Water Temp Dewpoint Dewpoint Depression Visibility Wind Speed Wind Dir Waves Ship Positions

Westview Chinook

Last reported at 2017-Feb-20 10:33 UTC. Time now 2017-Feb-20 11:10 UTC.
Position N 49°10' W 123°38'.

Length 15 m.

Type: Tug. MMSI: 316005622.

Date/timePositionNaut miles runAvg speedWind from/ knotsBaromVisibWave heightAir tempDewpointWater temp
2017-Feb-20 10:33N 49°10' W 123°38'6 5.5
2017-Feb-20 09:31N 49°12' W 123°46'2 0.5
2017-Feb-20 06:05N 49°14' W 123°47'4 7.4
2017-Feb-20 05:31N 49°14' W 123°41'7 7.4
2017-Feb-20 04:33N 49°15' W 123°30'7 7.3
2017-Feb-20 03:33N 49°16' W 123°19'3 2.6
2017-Feb-20 02:33N 49°15' W 123°15'0 0.0
2017-Feb-20 01:33N 49°15' W 123°15'0 0.0
2017-Feb-20 00:33N 49°15' W 123°15'1 1.1
2017-Feb-19 23:33N 49°16' W 123°17'9 9.5
2017-Feb-19 22:33N 49°15' W 123°31'15 7.5
2017-Feb-19 20:30N 49°09' W 123°53'5 5.5
2017-Feb-19 19:33N 49°13' W 123°48'9 8.5
2017-Feb-19 18:32N 49°11' W 123°35'8 8.4
2017-Feb-19 17:33N 49°08' W 123°24'8 7.9
2017-Feb-19 16:33N 49°07' W 123°12'7 6.6
2017-Feb-19 15:33N 49°09' W 123°02'8 8.1
2017-Feb-19 14:33N 49°13' W 122°51'4 3.7
2017-Feb-19 13:33N 49°14' W 122°46'0 0.0
2017-Feb-19 12:33N 49°14' W 122°46'0 0.2
2017-Feb-19 11:33N 49°14' W 122°46'7 6.6
2017-Feb-19 10:33N 49°12' W 122°56'8 7.7
2017-Feb-19 09:33N 49°12' W 123°08'6 5.8
2017-Feb-19 08:33N 49°15' W 123°15'4 4.3
2017-Feb-19 07:33N 49°19' W 123°13'5 4.9
2017-Feb-19 06:33N 49°18' W 123°06'8 7.9
2017-Feb-19 05:33N 49°16' W 123°17'4 3.8
2017-Feb-19 04:33N 49°13' W 123°13'5 4.7
2017-Feb-19 03:33N 49°12' W 123°06'5 5.2
2017-Feb-19 02:33N 49°11' W 122°58'8 8.3
2017-Feb-19 01:33N 49°14' W 122°46'0 0.0
2017-Feb-19 00:33N 49°14' W 122°46'0 0.0
2017-Feb-18 23:33N 49°14' W 122°46'0 0.0
2017-Feb-18 22:33N 49°14' W 122°46'0 0.0
2017-Feb-18 21:33N 49°14' W 122°46'0 0.0
2017-Feb-18 20:33N 49°14' W 122°46'0 0.0
2017-Feb-18 19:33N 49°14' W 122°46'0 0.0
2017-Feb-18 18:33N 49°14' W 122°46'0 0.0
2017-Feb-18 17:33N 49°14' W 122°46'0 0.0
2017-Feb-18 16:33N 49°14' W 122°46'3 3.1
2017-Feb-18 15:33N 49°13' W 122°51'8 8.0
2017-Feb-18 14:33N 49°09' W 123°01'1 1.2
2017-Feb-18 13:33N 49°09' W 123°03'5 4.7
2017-Feb-18 12:33N 49°06' W 123°09'5 4.6
2017-Feb-18 11:33N 49°07' W 123°16'5 5.1
2017-Feb-18 10:33N 49°07' W 123°24'7 7.0
2017-Feb-18 09:30N 49°09' W 123°35'7 6.6
2017-Feb-18 08:28N 49°11' W 123°45'5 5.2
2017-Feb-18 07:26N 49°10' W 123°53'3 3.0
2017-Feb-18 06:20N 49°12' W 123°48'8 9.7
2017-Feb-18 05:31N 49°10' W 123°37'9 9.5
2017-Feb-18 04:33N 49°07' W 123°24'9 9.4
2017-Feb-18 03:33N 49°07' W 123°09'1010.3
2017-Feb-18 02:33N 49°11' W 122°55'6 3.1
2017-Feb-18 00:29N 49°14' W 122°46'6 6.0
2017-Feb-17 23:33N 49°12' W 122°54'1 0.5
2017-Feb-17 22:33N 49°12' W 122°55'4 3.9
2017-Feb-17 21:33N 49°12' W 123°01'5 4.7
2017-Feb-17 20:34N 49°12' W 123°08'1 1.1
2017-Feb-17 19:33N 49°12' W 123°07'4 4.4
2017-Feb-17 18:34N 49°13' W 123°13'1 1.2
2017-Feb-17 17:33N 49°13' W 123°11'4 4.1
2017-Feb-17 16:33N 49°12' W 123°05'5 4.9
2017-Feb-17 15:33N 49°11' W 122°58'8 7.5
2017-Feb-17 14:32N 49°14' W 122°46'0 0.0
2017-Feb-16 18:32N 49°14' W 122°46'0 0.0
2017-Feb-16 17:33N 49°14' W 122°46'4 3.8
2017-Feb-16 16:33N 49°13' W 122°51'4 4.2
2017-Feb-16 15:33N 49°11' W 122°57'2 1.7
2017-Feb-16 14:33N 49°11' W 122°55'2 1.8
2017-Feb-16 13:33N 49°11' W 122°58'7 6.7
2017-Feb-16 12:33N 49°12' W 123°08'7 7.5
2017-Feb-16 11:33N 49°16' W 123°18'9 9.4
2017-Feb-16 10:33N 49°14' W 123°32'14 9.5
2017-Feb-16 09:07N 49°12' W 123°53'3 4.5
2017-Feb-16 08:31N 49°09' W 123°53'4 4.6
2017-Feb-16 07:33N 49°12' W 123°48'9 8.6
2017-Feb-16 06:33N 49°09' W 123°36'8 8.0
2017-Feb-16 05:33N 49°05' W 123°25'8 8.1
2017-Feb-16 04:33N 49°08' W 123°13'7 7.3
2017-Feb-16 03:33N 49°09' W 123°02'6 6.4
2017-Feb-16 02:33N 49°12' W 122°54'0 0.2
2017-Feb-16 01:23N 49°13' W 122°54'5 6.1
2017-Feb-16 00:33N 49°12' W 123°01'5 4.5
2017-Feb-15 23:33N 49°12' W 123°08'5 5.2
2017-Feb-15 22:33N 49°15' W 123°15'3 3.0
2017-Feb-15 21:33N 49°18' W 123°16'7 6.5
2017-Feb-15 20:33N 49°19' W 123°06'2 1.5
2017-Feb-15 19:33N 49°19' W 123°08'6 6.2
2017-Feb-15 18:33N 49°14' W 123°15'7 7.5
2017-Feb-15 17:33N 49°12' W 123°04'6 5.9
2017-Feb-15 16:33N 49°11' W 122°55'1 0.8
2017-Feb-15 15:33N 49°12' W 122°56'5 5.1
2017-Feb-15 14:33N 49°09' W 123°02'5 4.8
2017-Feb-15 13:33N 49°07' W 123°08'5 5.4
2017-Feb-15 12:33N 49°07' W 123°17'5 4.7
2017-Feb-15 11:33N 49°07' W 123°24'6 5.7
2017-Feb-15 10:33N 49°09' W 123°32'5 5.3
2017-Feb-15 09:32N 49°11' W 123°40'5 4.7
2017-Feb-15 08:33N 49°13' W 123°46'5 4.6
2017-Feb-15 07:33N 49°11' W 123°53'2 2.2
2017-Feb-15 06:33N 49°13' W 123°51'1010.0
2017-Feb-15 05:33N 49°14' W 123°35'1010.1
2017-Feb-15 04:33N 49°15' W 123°20'9 8.8
2017-Feb-15 03:33N 49°12' W 123°08'3 3.2
2017-Feb-15 02:33N 49°12' W 123°03'0 0.0
2017-Feb-15 01:33N 49°12' W 123°03'0 0.0
2017-Feb-15 00:33N 49°12' W 123°03'0 0.0
2017-Feb-14 23:33N 49°12' W 123°03'0 0.0
2017-Feb-14 22:33N 49°12' W 123°03'0 0.0
2017-Feb-14 21:33N 49°12' W 123°03'2 1.7
2017-Feb-14 20:33N 49°12' W 123°05'4 3.7
2017-Feb-14 19:33N 49°13' W 123°11'5 4.5
2017-Feb-14 18:33N 49°15' W 123°17'4 3.6
2017-Feb-14 17:33N 49°18' W 123°13'4 3.8
2017-Feb-14 16:33N 49°18' W 123°07'1 0.5
2017-Feb-14 15:33N 49°19' W 123°06'0 0.0
2017-Feb-14 14:33N 49°19' W 123°06'3 2.9
2017-Feb-14 13:33N 49°18' W 123°02'0 0.0
2017-Feb-14 12:33N 49°18' W 123°02'0 0.0
2017-Feb-14 11:33N 49°18' W 123°02'0 0.0
2017-Feb-14 10:33N 49°18' W 123°02'0 0.0
2017-Feb-14 09:33N 49°18' W 123°02'0 0.0
2017-Feb-14 08:33N 49°18' W 123°02'0 0.0
2017-Feb-14 07:33N 49°18' W 123°02'0 0.0
2017-Feb-14 06:33N 49°18' W 123°02'0 0.0
2017-Feb-14 05:33N 49°18' W 123°02'0 0.0
2017-Feb-14 04:33N 49°18' W 123°02'0 0.0
2017-Feb-14 03:33N 49°18' W 123°02'0 0.0
2017-Feb-14 02:33N 49°18' W 123°02'0 0.0
2017-Feb-14 01:33N 49°18' W 123°02'0 0.0
2017-Feb-14 00:33N 49°18' W 123°02'0 0.0
2017-Feb-13 23:33N 49°18' W 123°02'0 0.0
2017-Feb-13 22:33N 49°18' W 123°02'0 0.0
2017-Feb-13 21:33N 49°18' W 123°02'0 0.0
2017-Feb-13 20:33N 49°18' W 123°02'0 0.0
2017-Feb-13 19:33N 49°18' W 123°02'0 0.0
2017-Feb-13 18:33N 49°18' W 123°02'0 0.0
2017-Feb-13 17:33N 49°18' W 123°02'0 0.0
2017-Feb-13 16:33N 49°18' W 123°02'0 0.0
2017-Feb-13 15:33N 49°18' W 123°02'0 0.0
2017-Feb-13 14:33N 49°18' W 123°02'0 0.0
2017-Feb-13 13:33N 49°18' W 123°02'0 0.0
2017-Feb-13 12:33N 49°18' W 123°02'0 0.0
2017-Feb-13 11:33N 49°18' W 123°02'0 0.0
2017-Feb-13 10:33N 49°18' W 123°02'0 0.0
2017-Feb-13 09:33N 49°18' W 123°02'0 0.0
2017-Feb-13 08:33N 49°18' W 123°02'0 0.0
2017-Feb-13 07:33N 49°18' W 123°02'0 0.0
2017-Feb-13 06:33N 49°18' W 123°02'0 0.0
2017-Feb-13 05:34N 49°18' W 123°02'0 0.0
2017-Feb-13 04:33N 49°18' W 123°02'0 0.0
2017-Feb-13 03:33N 49°18' W 123°02'0 0.0
2017-Feb-13 02:33N 49°18' W 123°02'3 2.9
2017-Feb-13 01:33N 49°18' W 123°06'10 9.5
2017-Feb-13 00:33N 49°17' W 123°21'9 9.4
2017-Feb-12 23:34N 49°15' W 123°35'9 9.1
2017-Feb-12 22:33N 49°13' W 123°48'5 4.9
2017-Feb-12 21:33N 49°09' W 123°53'6 5.7
2017-Feb-12 20:33N 49°14' W 123°48'9 8.5
2017-Feb-12 19:33N 49°11' W 123°35'8 7.8
2017-Feb-12 18:33N 49°08' W 123°24'8 7.6
2017-Feb-12 17:33N 49°08' W 123°13'7 7.1
2017-Feb-12 16:33N 49°09' W 123°02'5 5.1
2017-Feb-12 15:33N 49°11' W 122°55'6 6.3
2017-Feb-12 14:33N 49°14' W 122°46'0 0.0
2017-Feb-11 16:05N 49°14' W 122°46'2 3.2
2017-Feb-11 15:32N 49°13' W 122°48'5 4.9
2017-Feb-11 14:34N 49°11' W 122°55'5 5.1
2017-Feb-11 13:34N 49°09' W 123°02'3 2.9
2017-Feb-11 12:33N 49°07' W 123°05'7 6.6
2017-Feb-11 11:34N 49°07' W 123°15'6 5.6
2017-Feb-11 10:34N 49°07' W 123°24'5 5.2
2017-Feb-11 09:33N 49°09' W 123°32'6 5.8
2017-Feb-11 08:34N 49°10' W 123°40'5 5.5
2017-Feb-11 07:34N 49°12' W 123°48'4 4.4
2017-Feb-11 06:33N 49°09' W 123°53'6 6.0
2017-Feb-11 05:34N 49°13' W 123°47'10 9.9
2017-Feb-11 04:33N 49°16' W 123°32'10 9.9
2017-Feb-11 03:33N 49°19' W 123°17'10 9.6
2017-Feb-11 02:33N 49°18' W 123°03'1 0.1
2017-Feb-10 21:33N 49°18' W 123°02'0 0.0
2017-Feb-10 20:34N 49°18' W 123°02'0 0.0
2017-Feb-10 19:34N 49°18' W 123°02'0 0.0
2017-Feb-10 18:34N 49°18' W 123°02'0 0.0
2017-Feb-10 17:34N 49°18' W 123°02'0 0.0
2017-Feb-10 16:33N 49°18' W 123°02'0 0.0
2017-Feb-10 15:33N 49°18' W 123°02'0 0.0
2017-Feb-10 14:33N 49°18' W 123°02'0 0.0
2017-Feb-10 13:33N 49°18' W 123°02'0 0.0
2017-Feb-10 12:33N 49°18' W 123°02'0 0.0
2017-Feb-10 11:33N 49°18' W 123°02'0 0.0
2017-Feb-10 10:33N 49°18' W 123°02'  

Dump ship's entire track history